Thunder radar more information blitzortung!


Radar de pluja more information rain snow radar


Visita la nostra xarxa de llocs de meteo:

Template documentation
and downloads

And another site



No particular awareness of the weather is required.    There are no Weather-warnings

Pagina Historial Weather Underground text

Diari Resum Novembre 13, 2018 Unitats:  Tant    Imperial   Mètric
« Previous Dia
SegĂźent Dia »
Diari Setmana Mensual Anual Personalitzada
  Actual: Maxima: Minima: Media:
Temperatura: 16.7 °F /  -8.5 °C TemperatureC °F /  -17.8 °C 11.2 °F /  -11.6 °C 15.2 °F /  -9.3 °C
Punt de rosada: 12.7 °F /  -10.7 °C DewpointC °F /  -17.8 °C 8.7 °F /  -12.9 °C 11.1 °F /  -11.6 °C
Humitat: 77 % Humidity % 63 % 77 %
Wind Speed: 3.7 mph /  6 km/h WindSpeedKMH mph /  0 km/h - 5.9 mph /  9.5 km/h
RĂ fegues de vent: 3.5 mph /  5.6 km/h WindSpeedGustKMH mph /  0 km/h - -
Vent:NE - - East
Pression baro: 1026.9 in /  34770.8 hPa PressurehPa in /  0 hPa 1020.9 in /  34567.7 hPa -
Precipitacions: 0.0 in /  0 mm      
Historical Graphs
 
 
Dades de taula per Novembre 13, 2018
Temps Temperatura Punt de rosada Pression baro Vent Wind Speed RĂ fegues de vent Humitat Rainfall Rate (Hourly)
TemperatureC °F /  -17.8 °C DewpointC °F /  -17.8 °C PressurehPa in /  0 hPa Calm     Humidity % HourlyPrecipMM in /  0 mm
00:04 14.4 °F /  -9.8 °C 11.7 °F /  -11.3 °C 1021.9 in /  34601.5 hPa NNE 5.6 mph /  9 km/h 2.3 mph /  3.7 km/h 84 % 0.0 in /  0 mm
00:09 14.3 °F /  -9.8 °C 11.4 °F /  -11.4 °C 1021.9 in /  34601.5 hPa NE 8.7 mph /  14 km/h 4.2 mph /  6.8 km/h 83 % 0.0 in /  0 mm
00:14 14.1 °F /  -9.9 °C 11.3 °F /  -11.5 °C 1021.9 in /  34601.5 hPa NNE 5.6 mph /  9 km/h 3.5 mph /  5.6 km/h 83 % 0.0 in /  0 mm
00:19 14.1 °F /  -9.9 °C 11.3 °F /  -11.5 °C 1021.9 in /  34601.5 hPa NNE 3.7 mph /  6 km/h 2.6 mph /  4.2 km/h 83 % 0.0 in /  0 mm
00:24 14.0 °F /  -10 °C 11.2 °F /  -11.6 °C 1021.9 in /  34601.5 hPa NNE 5.6 mph /  9 km/h 3.9 mph /  6.3 km/h 83 % 0.0 in /  0 mm
00:29 14.0 °F /  -10 °C 11.3 °F /  -11.5 °C 1021.9 in /  34601.5 hPa NE 5.6 mph /  9 km/h 1.4 mph /  2.3 km/h 84 % 0.0 in /  0 mm
00:34 13.9 °F /  -10.1 °C 11.2 °F /  -11.6 °C 1021.9 in /  34601.5 hPa North 3.7 mph /  6 km/h 1.9 mph /  3.1 km/h 84 % 0.0 in /  0 mm
00:39 13.8 °F /  -10.1 °C 11.2 °F /  -11.6 °C 1021.9 in /  34601.5 hPa NNW 1.9 mph /  3.1 km/h   84 % 0.0 in /  0 mm
00:44 13.7 °F /  -10.2 °C 11.1 °F /  -11.6 °C 1021.9 in /  34601.5 hPa NNE 3.7 mph /  6 km/h 2.6 mph /  4.2 km/h 84 % 0.0 in /  0 mm
00:49 13.6 °F /  -10.2 °C 10.9 °F /  -11.7 °C 1020.9 in /  34567.7 hPa North 2.3 mph /  3.7 km/h 1.4 mph /  2.3 km/h 84 % 0.0 in /  0 mm
00:54 13.5 °F /  -10.3 °C 10.8 °F /  -11.8 °C 1020.9 in /  34567.7 hPa NW 2.6 mph /  4.2 km/h   84 % 0.0 in /  0 mm
00:59 13.5 °F /  -10.3 °C 10.8 °F /  -11.8 °C 1020.9 in /  34567.7 hPa NNE 1.9 mph /  3.1 km/h   84 % 0.0 in /  0 mm
01:04 13.4 °F /  -10.3 °C 10.8 °F /  -11.8 °C 1020.9 in /  34567.7 hPa NE 2.3 mph /  3.7 km/h 1.9 mph /  3.1 km/h 84 % 0.0 in /  0 mm
01:09 13.4 °F /  -10.3 °C 10.8 °F /  -11.8 °C 1021.9 in /  34601.5 hPa South 3.7 mph /  6 km/h 1.4 mph /  2.3 km/h 84 % 0.0 in /  0 mm
01:14 13.3 °F /  -10.4 °C 10.7 °F /  -11.8 °C 1021.9 in /  34601.5 hPa NE 1.9 mph /  3.1 km/h 1.4 mph /  2.3 km/h 84 % 0.0 in /  0 mm
01:19 13.3 °F /  -10.4 °C 10.7 °F /  -11.8 °C 1021.9 in /  34601.5 hPa NW 3.7 mph /  6 km/h 1.4 mph /  2.3 km/h 84 % 0.0 in /  0 mm
01:24 13.3 °F /  -10.4 °C 10.7 °F /  -11.8 °C 1021.9 in /  34601.5 hPa NNE 2.6 mph /  4.2 km/h 2.3 mph /  3.7 km/h 84 % 0.0 in /  0 mm
01:29 13.2 °F /  -10.4 °C 10.6 °F /  -11.9 °C 1021.9 in /  34601.5 hPa NNE 1.9 mph /  3.1 km/h   84 % 0.0 in /  0 mm
01:34 13.2 °F /  -10.4 °C 10.6 °F /  -11.9 °C 1021.9 in /  34601.5 hPa NE 3.7 mph /  6 km/h 3.2 mph /  5.1 km/h 84 % 0.0 in /  0 mm
01:39 13.3 °F /  -10.4 °C 10.7 °F /  -11.8 °C 1021.9 in /  34601.5 hPa NNW 5.0 mph /  8 km/h 5.0 mph /  8 km/h 84 % 0.0 in /  0 mm
01:44 13.3 °F /  -10.4 °C 10.7 °F /  -11.8 °C 1021.9 in /  34601.5 hPa ENE 3.7 mph /  6 km/h   84 % 0.0 in /  0 mm
01:49 13.3 °F /  -10.4 °C 10.7 °F /  -11.8 °C 1021.9 in /  34601.5 hPa NNE 1.9 mph /  3.1 km/h   84 % 0.0 in /  0 mm
01:54 13.2 °F /  -10.4 °C 10.6 °F /  -11.9 °C 1021.9 in /  34601.5 hPa North 1.9 mph /  3.1 km/h   84 % 0.0 in /  0 mm
01:59 13.2 °F /  -10.4 °C 10.6 °F /  -11.9 °C 1021.9 in /  34601.5 hPa NNE 3.7 mph /  6 km/h 1.4 mph /  2.3 km/h 84 % 0.0 in /  0 mm
02:04 13.1 °F /  -10.5 °C 10.4 °F /  -12 °C 1021.9 in /  34601.5 hPa NNW 1.9 mph /  3.1 km/h   84 % 0.0 in /  0 mm
02:09 13.0 °F /  -10.6 °C 10.3 °F /  -12.1 °C 1021.9 in /  34601.5 hPa Calm     84 % 0.0 in /  0 mm
02:14 13.0 °F /  -10.6 °C 10.3 °F /  -12.1 °C 1021.9 in /  34601.5 hPa Calm     84 % 0.0 in /  0 mm
02:19 13.0 °F /  -10.6 °C 10.3 °F /  -12.1 °C 1021.9 in /  34601.5 hPa NNE 2.6 mph /  4.2 km/h 1.4 mph /  2.3 km/h 84 % 0.0 in /  0 mm
02:24 13.0 °F /  -10.6 °C 10.3 °F /  -12.1 °C 1021.9 in /  34601.5 hPa NNE 2.3 mph /  3.7 km/h   84 % 0.0 in /  0 mm
02:29 12.9 °F /  -10.6 °C 10.3 °F /  -12.1 °C 1021.9 in /  34601.5 hPa NNE 7.4 mph /  11.9 km/h 3.9 mph /  6.3 km/h 84 % 0.0 in /  0 mm
02:34 12.9 °F /  -10.6 °C 10.3 °F /  -12.1 °C 1021.9 in /  34601.5 hPa WNW 1.9 mph /  3.1 km/h   84 % 0.0 in /  0 mm
02:39 12.9 °F /  -10.6 °C 10.3 °F /  -12.1 °C 1021.9 in /  34601.5 hPa NE 1.9 mph /  3.1 km/h   84 % 0.0 in /  0 mm
02:44 12.8 °F /  -10.7 °C 10.2 °F /  -12.1 °C 1021.9 in /  34601.5 hPa NNE 3.7 mph /  6 km/h 2.6 mph /  4.2 km/h 84 % 0.0 in /  0 mm
02:49 12.7 °F /  -10.7 °C 10.1 °F /  -12.2 °C 1021.9 in /  34601.5 hPa NE 3.7 mph /  6 km/h 1.9 mph /  3.1 km/h 84 % 0.0 in /  0 mm
02:54 12.7 °F /  -10.7 °C 10.1 °F /  -12.2 °C 1021.9 in /  34601.5 hPa NE 1.9 mph /  3.1 km/h   84 % 0.0 in /  0 mm
02:59 12.6 °F /  -10.8 °C 9.9 °F /  -12.3 °C 1021.9 in /  34601.5 hPa NNE 1.9 mph /  3.1 km/h   84 % 0.0 in /  0 mm
03:04 12.5 °F /  -10.8 °C 9.9 °F /  -12.3 °C 1021.9 in /  34601.5 hPa NNE 3.7 mph /  6 km/h 1.4 mph /  2.3 km/h 84 % 0.0 in /  0 mm
03:09 12.5 °F /  -10.8 °C 9.9 °F /  -12.3 °C 1021.9 in /  34601.5 hPa NNE 3.9 mph /  6.3 km/h 3.2 mph /  5.1 km/h 84 % 0.0 in /  0 mm
03:14 12.4 °F /  -10.9 °C 9.8 °F /  -12.3 °C 1021.9 in /  34601.5 hPa WNW 1.9 mph /  3.1 km/h   84 % 0.0 in /  0 mm
03:19 12.4 °F /  -10.9 °C 9.8 °F /  -12.3 °C 1021.9 in /  34601.5 hPa NNW 1.9 mph /  3.1 km/h   84 % 0.0 in /  0 mm
03:24 12.3 °F /  -10.9 °C 9.8 °F /  -12.3 °C 1021.9 in /  34601.5 hPa ENE 3.7 mph /  6 km/h 2.3 mph /  3.7 km/h 85 % 0.0 in /  0 mm
03:29 12.3 °F /  -10.9 °C 9.8 °F /  -12.3 °C 1021.9 in /  34601.5 hPa NNE 5.6 mph /  9 km/h 2.6 mph /  4.2 km/h 85 % 0.0 in /  0 mm
03:34 12.3 °F /  -10.9 °C 9.8 °F /  -12.3 °C 1021.9 in /  34601.5 hPa NE 5.6 mph /  9 km/h 3.2 mph /  5.1 km/h 85 % 0.0 in /  0 mm
03:39 12.2 °F /  -11 °C 9.6 °F /  -12.4 °C 1021.9 in /  34601.5 hPa NNW 5.6 mph /  9 km/h 1.4 mph /  2.3 km/h 84 % 0.0 in /  0 mm
03:44 12.2 °F /  -11 °C 9.6 °F /  -12.4 °C 1021.9 in /  34601.5 hPa WNW 5.6 mph /  9 km/h 4.7 mph /  7.6 km/h 84 % 0.0 in /  0 mm
03:49 12.2 °F /  -11 °C 9.6 °F /  -12.4 °C 1021.9 in /  34601.5 hPa NE 3.7 mph /  6 km/h 1.4 mph /  2.3 km/h 84 % 0.0 in /  0 mm
03:54 12.2 °F /  -11 °C 9.8 °F /  -12.3 °C 1021.9 in /  34601.5 hPa NE 7.4 mph /  11.9 km/h 2.3 mph /  3.7 km/h 85 % 0.0 in /  0 mm
03:59 12.1 °F /  -11.1 °C 9.7 °F /  -12.4 °C 1021.9 in /  34601.5 hPa North 3.7 mph /  6 km/h 1.4 mph /  2.3 km/h 85 % 0.0 in /  0 mm
04:04 12.1 °F /  -11.1 °C 9.7 °F /  -12.4 °C 1022.9 in /  34635.4 hPa East 3.7 mph /  6 km/h 1.4 mph /  2.3 km/h 85 % 0.0 in /  0 mm
04:09 12.1 °F /  -11.1 °C 9.7 °F /  -12.4 °C 1022.9 in /  34635.4 hPa ENE 3.7 mph /  6 km/h 2.6 mph /  4.2 km/h 85 % 0.0 in /  0 mm
04:14 12.1 °F /  -11.1 °C 9.7 °F /  -12.4 °C 1022.9 in /  34635.4 hPa NNE 1.9 mph /  3.1 km/h 1.4 mph /  2.3 km/h 85 % 0.0 in /  0 mm
04:19 12.0 °F /  -11.1 °C 9.6 °F /  -12.4 °C 1022.9 in /  34635.4 hPa ENE 3.7 mph /  6 km/h 2.3 mph /  3.7 km/h 85 % 0.0 in /  0 mm
04:24 12.0 °F /  -11.1 °C 9.6 °F /  -12.4 °C 1022.9 in /  34635.4 hPa NNE 1.9 mph /  3.1 km/h   85 % 0.0 in /  0 mm
04:29 11.9 °F /  -11.2 °C 9.4 °F /  -12.6 °C 1022.9 in /  34635.4 hPa NNE 1.9 mph /  3.1 km/h 1.4 mph /  2.3 km/h 85 % 0.0 in /  0 mm
04:34 11.9 °F /  -11.2 °C 9.4 °F /  -12.6 °C 1022.9 in /  34635.4 hPa North 3.9 mph /  6.3 km/h   85 % 0.0 in /  0 mm
04:39 11.9 °F /  -11.2 °C 9.4 °F /  -12.6 °C 1022.9 in /  34635.4 hPa ENE 1.9 mph /  3.1 km/h   85 % 0.0 in /  0 mm
04:44 11.9 °F /  -11.2 °C 9.4 °F /  -12.6 °C 1022.9 in /  34635.4 hPa NW 5.6 mph /  9 km/h   85 % 0.0 in /  0 mm
04:49 11.8 °F /  -11.2 °C 9.3 °F /  -12.6 °C 1022.9 in /  34635.4 hPa NNE 1.9 mph /  3.1 km/h   85 % 0.0 in /  0 mm
04:54 11.8 °F /  -11.2 °C 9.3 °F /  -12.6 °C 1022.9 in /  34635.4 hPa ENE 5.6 mph /  9 km/h 3.2 mph /  5.1 km/h 85 % 0.0 in /  0 mm
04:59 11.8 °F /  -11.2 °C 9.3 °F /  -12.6 °C 1022.9 in /  34635.4 hPa NNW 4.2 mph /  6.8 km/h   85 % 0.0 in /  0 mm
05:04 11.7 °F /  -11.3 °C 9.3 °F /  -12.6 °C 1022.9 in /  34635.4 hPa ENE 1.9 mph /  3.1 km/h   85 % 0.0 in /  0 mm
05:09 11.7 °F /  -11.3 °C 9.3 °F /  -12.6 °C 1022.9 in /  34635.4 hPa ENE 1.9 mph /  3.1 km/h   85 % 0.0 in /  0 mm
05:14 11.7 °F /  -11.3 °C 9.3 °F /  -12.6 °C 1022.9 in /  34635.4 hPa North 3.7 mph /  6 km/h 3.2 mph /  5.1 km/h 85 % 0.0 in /  0 mm
05:19 11.6 °F /  -11.3 °C 9.2 °F /  -12.7 °C 1022.9 in /  34635.4 hPa NNE 1.9 mph /  3.1 km/h 1.4 mph /  2.3 km/h 85 % 0.0 in /  0 mm
05:24 11.6 °F /  -11.3 °C 9.2 °F /  -12.7 °C 1022.9 in /  34635.4 hPa Calm     85 % 0.0 in /  0 mm
05:29 11.6 °F /  -11.3 °C 9.2 °F /  -12.7 °C 1022.9 in /  34635.4 hPa NNE 1.9 mph /  3.1 km/h   85 % 0.0 in /  0 mm
05:34 11.6 °F /  -11.3 °C 9.2 °F /  -12.7 °C 1022.9 in /  34635.4 hPa East 1.9 mph /  3.1 km/h 1.9 mph /  3.1 km/h 85 % 0.0 in /  0 mm
05:39 11.6 °F /  -11.3 °C 9.2 °F /  -12.7 °C 1022.9 in /  34635.4 hPa SSE 3.7 mph /  6 km/h 1.4 mph /  2.3 km/h 85 % 0.0 in /  0 mm
05:44 11.6 °F /  -11.3 °C 9.2 °F /  -12.7 °C 1022.9 in /  34635.4 hPa ESE 3.7 mph /  6 km/h 3.5 mph /  5.6 km/h 85 % 0.0 in /  0 mm
05:49 11.6 °F /  -11.3 °C 9.2 °F /  -12.7 °C 1023.9 in /  34669.3 hPa NNE 3.7 mph /  6 km/h 2.3 mph /  3.7 km/h 85 % 0.0 in /  0 mm
05:54 11.6 °F /  -11.3 °C 9.2 °F /  -12.7 °C 1023.9 in /  34669.3 hPa ENE 7.4 mph /  11.9 km/h 2.3 mph /  3.7 km/h 85 % 0.0 in /  0 mm
05:59 11.6 °F /  -11.3 °C 9.2 °F /  -12.7 °C 1023.9 in /  34669.3 hPa NNE 3.7 mph /  6 km/h 1.9 mph /  3.1 km/h 85 % 0.0 in /  0 mm
06:04 11.5 °F /  -11.4 °C 9.1 °F /  -12.7 °C 1023.9 in /  34669.3 hPa NNE 3.7 mph /  6 km/h   85 % 0.0 in /  0 mm
06:09 11.5 °F /  -11.4 °C 9.1 °F /  -12.7 °C 1023.9 in /  34669.3 hPa WNW 2.3 mph /  3.7 km/h 1.4 mph /  2.3 km/h 85 % 0.0 in /  0 mm
06:14 11.5 °F /  -11.4 °C 9.1 °F /  -12.7 °C 1023.9 in /  34669.3 hPa NW 3.2 mph /  5.1 km/h   85 % 0.0 in /  0 mm
06:19 11.5 °F /  -11.4 °C 9.1 °F /  -12.7 °C 1023.9 in /  34669.3 hPa WSW 3.7 mph /  6 km/h   85 % 0.0 in /  0 mm
06:24 11.4 °F /  -11.4 °C 8.9 °F /  -12.8 °C 1023.9 in /  34669.3 hPa SW 1.9 mph /  3.1 km/h   85 % 0.0 in /  0 mm
06:29 11.4 °F /  -11.4 °C 8.9 °F /  -12.8 °C 1023.9 in /  34669.3 hPa West 5.6 mph /  9 km/h 1.4 mph /  2.3 km/h 85 % 0.0 in /  0 mm
06:34 11.4 °F /  -11.4 °C 8.9 °F /  -12.8 °C 1023.9 in /  34669.3 hPa WNW 1.9 mph /  3.1 km/h 1.4 mph /  2.3 km/h 85 % 0.0 in /  0 mm
06:39 11.3 °F /  -11.5 °C 8.9 °F /  -12.8 °C 1023.9 in /  34669.3 hPa WNW 1.9 mph /  3.1 km/h   85 % 0.0 in /  0 mm
06:44 11.3 °F /  -11.5 °C 8.9 °F /  -12.8 °C 1023.9 in /  34669.3 hPa NNW 3.7 mph /  6 km/h 1.9 mph /  3.1 km/h 85 % 0.0 in /  0 mm
06:49 11.3 °F /  -11.5 °C 8.9 °F /  -12.8 °C 1023.9 in /  34669.3 hPa WNW 3.7 mph /  6 km/h   85 % 0.0 in /  0 mm
06:54 11.3 °F /  -11.5 °C 8.7 °F /  -12.9 °C 1023.9 in /  34669.3 hPa East 3.7 mph /  6 km/h   84 % 0.0 in /  0 mm
06:59 11.3 °F /  -11.5 °C 8.9 °F /  -12.8 °C 1023.9 in /  34669.3 hPa NNW 3.7 mph /  6 km/h   85 % 0.0 in /  0 mm
07:04 11.3 °F /  -11.5 °C 8.9 °F /  -12.8 °C 1022.9 in /  34635.4 hPa WNW 3.7 mph /  6 km/h   85 % 0.0 in /  0 mm
07:05 18.2 °F /  -7.7 °C 12.8 °F /  -10.7 °C 1025.9 in /  34737 hPa NNE 1.6 mph /  2.6 km/h 4.8 mph /  7.7 km/h 71 % 0.0 in /  0 mm
07:09 11.3 °F /  -11.5 °C 8.9 °F /  -12.8 °C 1022.9 in /  34635.4 hPa North 1.9 mph /  3.1 km/h   85 % 0.0 in /  0 mm
07:14 11.3 °F /  -11.5 °C 8.9 °F /  -12.8 °C 1022.9 in /  34635.4 hPa WSW 2.6 mph /  4.2 km/h 1.4 mph /  2.3 km/h 85 % 0.0 in /  0 mm
07:19 11.2 °F /  -11.6 °C 8.8 °F /  -12.9 °C 1023.9 in /  34669.3 hPa NW 1.9 mph /  3.1 km/h   85 % 0.0 in /  0 mm
07:24 11.2 °F /  -11.6 °C 8.8 °F /  -12.9 °C 1023.9 in /  34669.3 hPa WNW 3.5 mph /  5.6 km/h   85 % 0.0 in /  0 mm
07:29 11.3 °F /  -11.5 °C 8.9 °F /  -12.8 °C 1023.9 in /  34669.3 hPa NNE 3.9 mph /  6.3 km/h 1.9 mph /  3.1 km/h 85 % 0.0 in /  0 mm
07:34 11.3 °F /  -11.5 °C 8.9 °F /  -12.8 °C 1023.9 in /  34669.3 hPa North 3.7 mph /  6 km/h   85 % 0.0 in /  0 mm
07:39 11.2 °F /  -11.6 °C 8.8 °F /  -12.9 °C 1023.9 in /  34669.3 hPa Calm     85 % 0.0 in /  0 mm
07:44 11.2 °F /  -11.6 °C 8.8 °F /  -12.9 °C 1023.9 in /  34669.3 hPa North 3.7 mph /  6 km/h   85 % 0.0 in /  0 mm
07:49 11.2 °F /  -11.6 °C 8.8 °F /  -12.9 °C 1023.9 in /  34669.3 hPa Calm     85 % 0.0 in /  0 mm
07:54 11.2 °F /  -11.6 °C 8.8 °F /  -12.9 °C 1023.9 in /  34669.3 hPa NNW 3.7 mph /  6 km/h 2.3 mph /  3.7 km/h 85 % 0.0 in /  0 mm
07:59 11.3 °F /  -11.5 °C 8.9 °F /  -12.8 °C 1023.9 in /  34669.3 hPa NNE 2.3 mph /  3.7 km/h   85 % 0.0 in /  0 mm
08:04 11.4 °F /  -11.4 °C 8.9 °F /  -12.8 °C 1023.9 in /  34669.3 hPa North 5.6 mph /  9 km/h 2.3 mph /  3.7 km/h 85 % 0.0 in /  0 mm
08:09 11.5 °F /  -11.4 °C 9.1 °F /  -12.7 °C 1023.9 in /  34669.3 hPa Calm     85 % 0.0 in /  0 mm
08:14 11.5 °F /  -11.4 °C 9.1 °F /  -12.7 °C 1023.9 in /  34669.3 hPa NNE 2.6 mph /  4.2 km/h   85 % 0.0 in /  0 mm
08:19 11.5 °F /  -11.4 °C 8.9 °F /  -12.8 °C 1024.9 in /  34703.1 hPa NNE 3.7 mph /  6 km/h 2.3 mph /  3.7 km/h 84 % 0.0 in /  0 mm
08:24 11.6 °F /  -11.3 °C 9.0 °F /  -12.8 °C 1024.9 in /  34703.1 hPa NNE 3.7 mph /  6 km/h 2.6 mph /  4.2 km/h 84 % 0.0 in /  0 mm
08:29 11.6 °F /  -11.3 °C 9.0 °F /  -12.8 °C 1024.9 in /  34703.1 hPa NNE 3.7 mph /  6 km/h 2.6 mph /  4.2 km/h 84 % 0.0 in /  0 mm
08:34 11.7 °F /  -11.3 °C 9.1 °F /  -12.7 °C 1024.9 in /  34703.1 hPa NE 3.7 mph /  6 km/h 2.6 mph /  4.2 km/h 84 % 0.0 in /  0 mm
08:39 11.7 °F /  -11.3 °C 9.1 °F /  -12.7 °C 1024.9 in /  34703.1 hPa NNE 3.9 mph /  6.3 km/h 1.4 mph /  2.3 km/h 84 % 0.0 in /  0 mm
08:44 11.8 °F /  -11.2 °C 9.2 °F /  -12.7 °C 1024.9 in /  34703.1 hPa NNE 5.6 mph /  9 km/h 3.5 mph /  5.6 km/h 84 % 0.0 in /  0 mm
08:49 11.9 °F /  -11.2 °C 9.3 °F /  -12.6 °C 1025.9 in /  34737 hPa ENE 5.0 mph /  8 km/h 3.9 mph /  6.3 km/h 84 % 0.0 in /  0 mm
08:54 12.0 °F /  -11.1 °C 9.2 °F /  -12.7 °C 1025.9 in /  34737 hPa NE 1.9 mph /  3.1 km/h 1.9 mph /  3.1 km/h 83 % 0.0 in /  0 mm
08:59 12.1 °F /  -11.1 °C 9.3 °F /  -12.6 °C 1025.9 in /  34737 hPa ESE 3.7 mph /  6 km/h 2.3 mph /  3.7 km/h 83 % 0.0 in /  0 mm
09:04 12.3 °F /  -10.9 °C 9.5 °F /  -12.5 °C 1025.9 in /  34737 hPa NE 6.4 mph /  10.3 km/h 5.3 mph /  8.5 km/h 83 % 0.0 in /  0 mm
09:09 12.4 °F /  -10.9 °C 9.6 °F /  -12.4 °C 1025.9 in /  34737 hPa ENE 5.0 mph /  8 km/h 2.6 mph /  4.2 km/h 83 % 0.0 in /  0 mm
09:14 12.6 °F /  -10.8 °C 9.8 °F /  -12.3 °C 1025.9 in /  34737 hPa North 7.4 mph /  11.9 km/h 4.7 mph /  7.6 km/h 83 % 0.0 in /  0 mm
09:19 12.8 °F /  -10.7 °C 10.0 °F /  -12.2 °C 1025.9 in /  34737 hPa ENE 5.6 mph /  9 km/h 2.3 mph /  3.7 km/h 83 % 0.0 in /  0 mm
09:24 12.9 °F /  -10.6 °C 9.9 °F /  -12.3 °C 1025.9 in /  34737 hPa NE 3.9 mph /  6.3 km/h 2.3 mph /  3.7 km/h 82 % 0.0 in /  0 mm
09:29 13.0 °F /  -10.6 °C 10.0 °F /  -12.2 °C 1025.9 in /  34737 hPa WNW 2.3 mph /  3.7 km/h   82 % 0.0 in /  0 mm
09:34 13.0 °F /  -10.6 °C 10.0 °F /  -12.2 °C 1025.9 in /  34737 hPa West 3.7 mph /  6 km/h 2.3 mph /  3.7 km/h 82 % 0.0 in /  0 mm
09:39 13.2 °F /  -10.4 °C 10.0 °F /  -12.2 °C 1025.9 in /  34737 hPa NNW 3.7 mph /  6 km/h 2.3 mph /  3.7 km/h 81 % 0.0 in /  0 mm
09:44 13.2 °F /  -10.4 °C 10.0 °F /  -12.2 °C 1025.9 in /  34737 hPa NW 5.6 mph /  9 km/h 3.5 mph /  5.6 km/h 81 % 0.0 in /  0 mm
09:49 13.2 °F /  -10.4 °C 10.0 °F /  -12.2 °C 1025.9 in /  34737 hPa NE 11.1 mph /  17.9 km/h 6.1 mph /  9.8 km/h 81 % 0.0 in /  0 mm
09:54 13.5 °F /  -10.3 °C 10.1 °F /  -12.2 °C 1025.9 in /  34737 hPa NNE 9.3 mph /  15 km/h 5.0 mph /  8 km/h 80 % 0.0 in /  0 mm
09:59 13.7 °F /  -10.2 °C 10.3 °F /  -12.1 °C 1025.9 in /  34737 hPa NE 11.1 mph /  17.9 km/h 7.9 mph /  12.7 km/h 80 % 0.0 in /  0 mm
10:04 14.0 °F /  -10 °C 10.4 °F /  -12 °C 1025.9 in /  34737 hPa NNE 13.0 mph /  20.9 km/h 5.0 mph /  8 km/h 79 % 0.0 in /  0 mm
10:09 14.3 °F /  -9.8 °C 10.7 °F /  -11.8 °C 1025.9 in /  34737 hPa NW 11.1 mph /  17.9 km/h 4.7 mph /  7.6 km/h 79 % 0.0 in /  0 mm
10:14 14.4 °F /  -9.8 °C 10.8 °F /  -11.8 °C 1025.9 in /  34737 hPa NNE 5.6 mph /  9 km/h 4.2 mph /  6.8 km/h 79 % 0.0 in /  0 mm
10:19 14.5 °F /  -9.7 °C 10.7 °F /  -11.8 °C 1025.9 in /  34737 hPa NNE 9.3 mph /  15 km/h 7.6 mph /  12.2 km/h 78 % 0.0 in /  0 mm
10:24 14.9 °F /  -9.5 °C 11.1 °F /  -11.6 °C 1025.9 in /  34737 hPa ENE 3.7 mph /  6 km/h 2.6 mph /  4.2 km/h 78 % 0.0 in /  0 mm
10:29 15.0 °F /  -9.4 °C 11.2 °F /  -11.6 °C 1025.9 in /  34737 hPa NNE 7.4 mph /  11.9 km/h 2.6 mph /  4.2 km/h 78 % 0.0 in /  0 mm
10:34 15.0 °F /  -9.4 °C 11.2 °F /  -11.6 °C 1025.9 in /  34737 hPa NNW 7.4 mph /  11.9 km/h 5.0 mph /  8 km/h 78 % 0.0 in /  0 mm
10:39 15.3 °F /  -9.3 °C 11.3 °F /  -11.5 °C 1025.9 in /  34737 hPa NNW 5.6 mph /  9 km/h 3.5 mph /  5.6 km/h 77 % 0.0 in /  0 mm
10:44 15.4 °F /  -9.2 °C 11.4 °F /  -11.4 °C 1025.9 in /  34737 hPa NE 5.6 mph /  9 km/h 3.5 mph /  5.6 km/h 77 % 0.0 in /  0 mm
10:49 15.6 °F /  -9.1 °C 11.6 °F /  -11.3 °C 1024.9 in /  34703.1 hPa NNE 3.7 mph /  6 km/h 4.2 mph /  6.8 km/h 77 % 0.0 in /  0 mm
10:54 16.0 °F /  -8.9 °C 11.9 °F /  -11.2 °C 1024.9 in /  34703.1 hPa NNW 3.7 mph /  6 km/h 2.3 mph /  3.7 km/h 77 % 0.0 in /  0 mm
10:59 16.1 °F /  -8.8 °C 11.9 °F /  -11.2 °C 1024.9 in /  34703.1 hPa NNW 5.6 mph /  9 km/h 3.5 mph /  5.6 km/h 76 % 0.0 in /  0 mm
11:04 16.4 °F /  -8.7 °C 12.2 °F /  -11 °C 1025.9 in /  34737 hPa NNE 3.7 mph /  6 km/h 3.5 mph /  5.6 km/h 76 % 0.0 in /  0 mm
11:09 16.4 °F /  -8.7 °C 11.9 °F /  -11.2 °C 1025.9 in /  34737 hPa East 7.4 mph /  11.9 km/h 3.5 mph /  5.6 km/h 75 % 0.0 in /  0 mm
11:14 16.7 °F /  -8.5 °C 12.2 °F /  -11 °C 1025.9 in /  34737 hPa NNE 6.9 mph /  11.1 km/h 3.9 mph /  6.3 km/h 75 % 0.0 in /  0 mm
11:19 16.8 °F /  -8.4 °C 12.3 °F /  -10.9 °C 1025.9 in /  34737 hPa NNE 3.9 mph /  6.3 km/h 2.6 mph /  4.2 km/h 75 % 0.0 in /  0 mm
11:24 16.9 °F /  -8.4 °C 12.2 °F /  -11 °C 1025.9 in /  34737 hPa NE 7.4 mph /  11.9 km/h 4.2 mph /  6.8 km/h 74 % 0.0 in /  0 mm
11:29 17.2 °F /  -8.2 °C 12.3 °F /  -10.9 °C 1025.9 in /  34737 hPa North 1.9 mph /  3.1 km/h 1.9 mph /  3.1 km/h 73 % 0.0 in /  0 mm
11:34 17.2 °F /  -8.2 °C 12.3 °F /  -10.9 °C 1025.9 in /  34737 hPa NE 9.3 mph /  15 km/h 6.4 mph /  10.3 km/h 73 % 0.0 in /  0 mm
11:39 17.3 °F /  -8.2 °C 12.2 °F /  -11 °C 1025.9 in /  34737 hPa NNE 5.8 mph /  9.3 km/h 4.7 mph /  7.6 km/h 72 % 0.0 in /  0 mm
11:44 17.5 °F /  -8.1 °C 12.4 °F /  -10.9 °C 1025.9 in /  34737 hPa NE 7.4 mph /  11.9 km/h 3.9 mph /  6.3 km/h 72 % 0.0 in /  0 mm
11:49 17.6 °F /  -8 °C 12.3 °F /  -10.9 °C 1025.9 in /  34737 hPa NNE 7.9 mph /  12.7 km/h 4.2 mph /  6.8 km/h 71 % 0.0 in /  0 mm
11:54 17.8 °F /  -7.9 °C 12.4 °F /  -10.9 °C 1025.9 in /  34737 hPa ENE 1.9 mph /  3.1 km/h 1.9 mph /  3.1 km/h 71 % 0.0 in /  0 mm
11:55 18.0 °F /  -7.8 °C 12.7 °F /  -10.7 °C 1025.9 in /  34737 hPa NW 2.3 mph /  3.7 km/h 1.4 mph /  2.3 km/h 71 % 0.0 in /  0 mm
12:09 18.4 °F /  -7.6 °C 12.8 °F /  -10.7 °C 1025.9 in /  34737 hPa ENE 5.6 mph /  9 km/h 2.6 mph /  4.2 km/h 70 % 0.0 in /  0 mm
12:14 18.6 °F /  -7.4 °C 13.0 °F /  -10.6 °C 1025.9 in /  34737 hPa NE 3.7 mph /  6 km/h 1.4 mph /  2.3 km/h 70 % 0.0 in /  0 mm
12:19 18.6 °F /  -7.4 °C 13.0 °F /  -10.6 °C 1025.9 in /  34737 hPa NNE 7.4 mph /  11.9 km/h 4.7 mph /  7.6 km/h 70 % 0.0 in /  0 mm
12:24 18.9 °F /  -7.3 °C 13.3 °F /  -10.4 °C 1025.9 in /  34737 hPa NE 3.7 mph /  6 km/h 2.6 mph /  4.2 km/h 70 % 0.0 in /  0 mm
12:29 18.8 °F /  -7.3 °C 13.2 °F /  -10.4 °C 1025.9 in /  34737 hPa NE 9.3 mph /  15 km/h 4.7 mph /  7.6 km/h 70 % 0.0 in /  0 mm
12:34 18.9 °F /  -7.3 °C 13.3 °F /  -10.4 °C 1025.9 in /  34737 hPa ENE 9.3 mph /  15 km/h 3.2 mph /  5.1 km/h 70 % 0.0 in /  0 mm
12:39 19.1 °F /  -7.2 °C 13.1 °F /  -10.5 °C 1025.9 in /  34737 hPa WNW 3.7 mph /  6 km/h 3.5 mph /  5.6 km/h 68 % 0.0 in /  0 mm
12:44 19.2 °F /  -7.1 °C 13.4 °F /  -10.3 °C 1025.9 in /  34737 hPa NNW 6.9 mph /  11.1 km/h 4.2 mph /  6.8 km/h 69 % 0.0 in /  0 mm
12:49 19.0 °F /  -7.2 °C 12.9 °F /  -10.6 °C 1025.9 in /  34737 hPa NNW 9.7 mph /  15.6 km/h 7.9 mph /  12.7 km/h 68 % 0.0 in /  0 mm
12:54 19.1 °F /  -7.2 °C 13.3 °F /  -10.4 °C 1025.9 in /  34737 hPa NNE 7.4 mph /  11.9 km/h 4.2 mph /  6.8 km/h 69 % 0.0 in /  0 mm
12:59 19.1 °F /  -7.2 °C 13.3 °F /  -10.4 °C 1025.9 in /  34737 hPa NNE 9.5 mph /  15.3 km/h 5.8 mph /  9.3 km/h 69 % 0.0 in /  0 mm
13:04 19.2 °F /  -7.1 °C 13.4 °F /  -10.3 °C 1024.9 in /  34703.1 hPa NNE 7.4 mph /  11.9 km/h 5.8 mph /  9.3 km/h 69 % 0.0 in /  0 mm
13:09 19.3 °F /  -7.1 °C 13.4 °F /  -10.3 °C 1024.9 in /  34703.1 hPa North 9.3 mph /  15 km/h 8.7 mph /  14 km/h 69 % 0.0 in /  0 mm
13:14 19.6 °F /  -6.9 °C 13.8 °F /  -10.1 °C 1024.9 in /  34703.1 hPa NNE 7.4 mph /  11.9 km/h 6.1 mph /  9.8 km/h 69 % 0.0 in /  0 mm
13:19 20.0 °F /  -6.7 °C 13.9 °F /  -10.1 °C 1024.9 in /  34703.1 hPa ENE 9.3 mph /  15 km/h 7.2 mph /  11.6 km/h 68 % 0.0 in /  0 mm
13:24 19.9 °F /  -6.7 °C 13.8 °F /  -10.1 °C 1024.9 in /  34703.1 hPa ENE 16.7 mph /  26.9 km/h 10.0 mph /  16.1 km/h 68 % 0.0 in /  0 mm
13:29 19.8 °F /  -6.8 °C 13.5 °F /  -10.3 °C 1024.9 in /  34703.1 hPa East 13.0 mph /  20.9 km/h 5.3 mph /  8.5 km/h 67 % 0.0 in /  0 mm
13:34 19.6 °F /  -6.9 °C 13.3 °F /  -10.4 °C 1024.9 in /  34703.1 hPa ENE 14.8 mph /  23.8 km/h 7.9 mph /  12.7 km/h 67 % 0.0 in /  0 mm
13:39 19.8 °F /  -6.8 °C 13.5 °F /  -10.3 °C 1024.9 in /  34703.1 hPa ESE 11.1 mph /  17.9 km/h 8.7 mph /  14 km/h 67 % 0.0 in /  0 mm
13:44 20.0 °F /  -6.7 °C 13.4 °F /  -10.3 °C 1024.9 in /  34703.1 hPa ENE 13.0 mph /  20.9 km/h 9.5 mph /  15.3 km/h 66 % 0.0 in /  0 mm
13:49 20.0 °F /  -6.7 °C 13.4 °F /  -10.3 °C 1024.9 in /  34703.1 hPa NE 12.6 mph /  20.3 km/h 9.7 mph /  15.6 km/h 66 % 0.0 in /  0 mm
13:54 20.1 °F /  -6.6 °C 13.6 °F /  -10.2 °C 1024.9 in /  34703.1 hPa East 12.6 mph /  20.3 km/h 8.7 mph /  14 km/h 66 % 0.0 in /  0 mm
13:59 20.1 °F /  -6.6 °C 13.3 °F /  -10.4 °C 1024.9 in /  34703.1 hPa NE 10.3 mph /  16.6 km/h 4.2 mph /  6.8 km/h 65 % 0.0 in /  0 mm
14:04 20.3 °F /  -6.5 °C 13.5 °F /  -10.3 °C 1024.9 in /  34703.1 hPa NE 14.8 mph /  23.8 km/h 7.9 mph /  12.7 km/h 65 % 0.0 in /  0 mm
14:09 20.2 °F /  -6.6 °C 13.4 °F /  -10.3 °C 1024.9 in /  34703.1 hPa NNE 14.8 mph /  23.8 km/h 8.7 mph /  14 km/h 65 % 0.0 in /  0 mm
14:14 20.1 °F /  -6.6 °C 13.3 °F /  -10.4 °C 1024.9 in /  34703.1 hPa ESE 11.1 mph /  17.9 km/h 9.0 mph /  14.5 km/h 65 % 0.0 in /  0 mm
14:19 20.2 °F /  -6.6 °C 13.2 °F /  -10.4 °C 1023.9 in /  34669.3 hPa ENE 16.7 mph /  26.9 km/h 10.3 mph /  16.6 km/h 64 % 0.0 in /  0 mm
14:24 20.2 °F /  -6.6 °C 13.2 °F /  -10.4 °C 1023.9 in /  34669.3 hPa ENE 11.1 mph /  17.9 km/h 8.7 mph /  14 km/h 64 % 0.0 in /  0 mm
14:29 20.3 °F /  -6.5 °C 13.3 °F /  -10.4 °C 1023.9 in /  34669.3 hPa ENE 9.5 mph /  15.3 km/h 6.9 mph /  11.1 km/h 64 % 0.0 in /  0 mm
14:34 20.4 °F /  -6.4 °C 13.3 °F /  -10.4 °C 1023.9 in /  34669.3 hPa ENE 9.3 mph /  15 km/h 8.7 mph /  14 km/h 64 % 0.0 in /  0 mm
14:39 20.2 °F /  -6.6 °C 13.2 °F /  -10.4 °C 1023.9 in /  34669.3 hPa ENE 13.0 mph /  20.9 km/h 7.2 mph /  11.6 km/h 64 % 0.0 in /  0 mm
14:44 20.1 °F /  -6.6 °C 13.1 °F /  -10.5 °C 1023.9 in /  34669.3 hPa NNE 11.1 mph /  17.9 km/h 9.7 mph /  15.6 km/h 64 % 0.0 in /  0 mm
14:49 20.0 °F /  -6.7 °C 12.7 °F /  -10.7 °C 1024.9 in /  34703.1 hPa East 11.1 mph /  17.9 km/h 9.5 mph /  15.3 km/h 63 % 0.0 in /  0 mm
14:54 20.0 °F /  -6.7 °C 12.7 °F /  -10.7 °C 1024.9 in /  34703.1 hPa NE 13.0 mph /  20.9 km/h 7.2 mph /  11.6 km/h 63 % 0.0 in /  0 mm
14:59 20.0 °F /  -6.7 °C 12.7 °F /  -10.7 °C 1024.9 in /  34703.1 hPa NNE 13.7 mph /  22 km/h 9.0 mph /  14.5 km/h 63 % 0.0 in /  0 mm
15:04 20.0 °F /  -6.7 °C 12.7 °F /  -10.7 °C 1024.9 in /  34703.1 hPa NE 13.0 mph /  20.9 km/h 5.8 mph /  9.3 km/h 63 % 0.0 in /  0 mm
15:09 19.9 °F /  -6.7 °C 12.9 °F /  -10.6 °C 1024.9 in /  34703.1 hPa ENE 11.1 mph /  17.9 km/h 5.8 mph /  9.3 km/h 64 % 0.0 in /  0 mm
15:14 20.0 °F /  -6.7 °C 13.0 °F /  -10.6 °C 1024.9 in /  34703.1 hPa East 13.0 mph /  20.9 km/h 7.2 mph /  11.6 km/h 64 % 0.0 in /  0 mm
15:19 20.2 °F /  -6.6 °C 13.2 °F /  -10.4 °C 1024.9 in /  34703.1 hPa NW 9.3 mph /  15 km/h 5.3 mph /  8.5 km/h 64 % 0.0 in /  0 mm
15:24 20.2 °F /  -6.6 °C 13.2 °F /  -10.4 °C 1024.9 in /  34703.1 hPa ESE 12.6 mph /  20.3 km/h 7.2 mph /  11.6 km/h 64 % 0.0 in /  0 mm
15:29 20.0 °F /  -6.7 °C 12.7 °F /  -10.7 °C 1024.9 in /  34703.1 hPa ENE 16.7 mph /  26.9 km/h 10.0 mph /  16.1 km/h 63 % 0.0 in /  0 mm
15:34 19.8 °F /  -6.8 °C 12.8 °F /  -10.7 °C 1024.9 in /  34703.1 hPa NNE 11.1 mph /  17.9 km/h 7.2 mph /  11.6 km/h 64 % 0.0 in /  0 mm
15:39 19.7 °F /  -6.8 °C 12.7 °F /  -10.7 °C 1024.9 in /  34703.1 hPa ESE 10.8 mph /  17.4 km/h 9.0 mph /  14.5 km/h 64 % 0.0 in /  0 mm
15:44 19.6 °F /  -6.9 °C 12.6 °F /  -10.8 °C 1024.9 in /  34703.1 hPa ESE 14.8 mph /  23.8 km/h 11.1 mph /  17.9 km/h 64 % 0.0 in /  0 mm
15:49 19.6 °F /  -6.9 °C 12.8 °F /  -10.7 °C 1024.9 in /  34703.1 hPa East 11.1 mph /  17.9 km/h 10.8 mph /  17.4 km/h 65 % 0.0 in /  0 mm
15:54 19.7 °F /  -6.8 °C 12.7 °F /  -10.7 °C 1024.9 in /  34703.1 hPa ESE 10.3 mph /  16.6 km/h 9.7 mph /  15.6 km/h 64 % 0.0 in /  0 mm
15:59 19.6 °F /  -6.9 °C 12.6 °F /  -10.8 °C 1024.9 in /  34703.1 hPa East 11.9 mph /  19.2 km/h 9.5 mph /  15.3 km/h 64 % 0.0 in /  0 mm
16:04 19.6 °F /  -6.9 °C 12.6 °F /  -10.8 °C 1024.9 in /  34703.1 hPa ENE 13.0 mph /  20.9 km/h 6.4 mph /  10.3 km/h 64 % 0.0 in /  0 mm
16:09 19.6 °F /  -6.9 °C 12.6 °F /  -10.8 °C 1024.9 in /  34703.1 hPa East 16.7 mph /  26.9 km/h 9.7 mph /  15.6 km/h 64 % 0.0 in /  0 mm
16:14 19.5 °F /  -6.9 °C 12.5 °F /  -10.8 °C 1024.9 in /  34703.1 hPa ENE 13.0 mph /  20.9 km/h 9.5 mph /  15.3 km/h 64 % 0.0 in /  0 mm
16:19 19.5 °F /  -6.9 °C 12.7 °F /  -10.7 °C 1025.9 in /  34737 hPa NNW 9.3 mph /  15 km/h 6.9 mph /  11.1 km/h 65 % 0.0 in /  0 mm
16:24 19.4 °F /  -7 °C 12.7 °F /  -10.7 °C 1025.9 in /  34737 hPa ENE 9.3 mph /  15 km/h 6.1 mph /  9.8 km/h 65 % 0.0 in /  0 mm
16:29 19.3 °F /  -7.1 °C 12.6 °F /  -10.8 °C 1025.9 in /  34737 hPa East 11.1 mph /  17.9 km/h 7.6 mph /  12.2 km/h 65 % 0.0 in /  0 mm
16:34 19.3 °F /  -7.1 °C 12.6 °F /  -10.8 °C 1025.9 in /  34737 hPa ENE 13.0 mph /  20.9 km/h 7.2 mph /  11.6 km/h 65 % 0.0 in /  0 mm
16:39 19.2 °F /  -7.1 °C 12.4 °F /  -10.9 °C 1025.9 in /  34737 hPa North 13.0 mph /  20.9 km/h 7.2 mph /  11.6 km/h 65 % 0.0 in /  0 mm
16:44 19.0 °F /  -7.2 °C 12.5 °F /  -10.8 °C 1025.9 in /  34737 hPa NNE 7.4 mph /  11.9 km/h 8.7 mph /  14 km/h 66 % 0.0 in /  0 mm
16:49 19.0 °F /  -7.2 °C 12.5 °F /  -10.8 °C 1025.9 in /  34737 hPa ENE 9.3 mph /  15 km/h 6.1 mph /  9.8 km/h 66 % 0.0 in /  0 mm
16:54 18.8 °F /  -7.3 °C 12.6 °F /  -10.8 °C 1025.9 in /  34737 hPa NNE 9.3 mph /  15 km/h 6.1 mph /  9.8 km/h 67 % 0.0 in /  0 mm
16:59 18.7 °F /  -7.4 °C 12.7 °F /  -10.7 °C 1025.9 in /  34737 hPa NNE 7.9 mph /  12.7 km/h 5.3 mph /  8.5 km/h 68 % 0.0 in /  0 mm
17:04 18.6 °F /  -7.4 °C 12.6 °F /  -10.8 °C 1025.9 in /  34737 hPa ESE 5.6 mph /  9 km/h 5.0 mph /  8 km/h 68 % 0.0 in /  0 mm
17:09 18.4 °F /  -7.6 °C 12.4 °F /  -10.9 °C 1025.9 in /  34737 hPa ENE 3.9 mph /  6.3 km/h 4.7 mph /  7.6 km/h 68 % 0.0 in /  0 mm
17:14 18.4 °F /  -7.6 °C 12.6 °F /  -10.8 °C 1025.9 in /  34737 hPa NE 7.4 mph /  11.9 km/h 4.7 mph /  7.6 km/h 69 % 0.0 in /  0 mm
17:19 18.4 °F /  -7.6 °C 12.6 °F /  -10.8 °C 1025.9 in /  34737 hPa ENE 5.8 mph /  9.3 km/h 5.8 mph /  9.3 km/h 69 % 0.0 in /  0 mm
17:24 18.3 °F /  -7.6 °C 12.5 °F /  -10.8 °C 1025.9 in /  34737 hPa NE 9.3 mph /  15 km/h 4.7 mph /  7.6 km/h 69 % 0.0 in /  0 mm
17:29 18.3 °F /  -7.6 °C 12.5 °F /  -10.8 °C 1025.9 in /  34737 hPa North 7.4 mph /  11.9 km/h 5.8 mph /  9.3 km/h 69 % 0.0 in /  0 mm
17:34 18.3 °F /  -7.6 °C 12.5 °F /  -10.8 °C 1025.9 in /  34737 hPa NE 9.3 mph /  15 km/h 4.2 mph /  6.8 km/h 69 % 0.0 in /  0 mm
17:39 18.2 °F /  -7.7 °C 12.6 °F /  -10.8 °C 1025.9 in /  34737 hPa NE 7.4 mph /  11.9 km/h 3.2 mph /  5.1 km/h 70 % 0.0 in /  0 mm
17:44 18.1 °F /  -7.7 °C 12.6 °F /  -10.8 °C 1025.9 in /  34737 hPa ENE 5.6 mph /  9 km/h 1.9 mph /  3.1 km/h 70 % 0.0 in /  0 mm
17:49 18.0 °F /  -7.8 °C 12.4 °F /  -10.9 °C 1025.9 in /  34737 hPa ENE 3.7 mph /  6 km/h 2.3 mph /  3.7 km/h 70 % 0.0 in /  0 mm
17:54 17.9 °F /  -7.8 °C 12.6 °F /  -10.8 °C 1025.9 in /  34737 hPa NE 1.9 mph /  3.1 km/h   71 % 0.0 in /  0 mm
17:59 17.9 °F /  -7.8 °C 12.6 °F /  -10.8 °C 1025.9 in /  34737 hPa ENE 1.9 mph /  3.1 km/h 1.4 mph /  2.3 km/h 71 % 0.0 in /  0 mm
18:04 17.8 °F /  -7.9 °C 12.4 °F /  -10.9 °C 1025.9 in /  34737 hPa ENE 3.2 mph /  5.1 km/h   71 % 0.0 in /  0 mm
18:09 17.7 °F /  -7.9 °C 12.6 °F /  -10.8 °C 1025.9 in /  34737 hPa Calm     72 % 0.0 in /  0 mm
18:14 17.6 °F /  -8 °C 12.5 °F /  -10.8 °C 1025.9 in /  34737 hPa NE 3.7 mph /  6 km/h 1.4 mph /  2.3 km/h 72 % 0.0 in /  0 mm
18:19 17.6 °F /  -8 °C 12.5 °F /  -10.8 °C 1026.9 in /  34770.8 hPa NE 1.9 mph /  3.1 km/h   72 % 0.0 in /  0 mm
18:24 17.5 °F /  -8.1 °C 12.4 °F /  -10.9 °C 1026.9 in /  34770.8 hPa ENE 3.7 mph /  6 km/h 1.9 mph /  3.1 km/h 72 % 0.0 in /  0 mm
18:29 17.4 °F /  -8.1 °C 12.5 °F /  -10.8 °C 1026.9 in /  34770.8 hPa ENE 3.2 mph /  5.1 km/h 2.6 mph /  4.2 km/h 73 % 0.0 in /  0 mm
18:34 17.3 °F /  -8.2 °C 12.4 °F /  -10.9 °C 1025.9 in /  34737 hPa ENE 3.9 mph /  6.3 km/h 3.9 mph /  6.3 km/h 73 % 0.0 in /  0 mm
18:39 17.3 °F /  -8.2 °C 12.4 °F /  -10.9 °C 1025.9 in /  34737 hPa East 7.4 mph /  11.9 km/h 4.7 mph /  7.6 km/h 73 % 0.0 in /  0 mm
18:44 17.3 °F /  -8.2 °C 12.4 °F /  -10.9 °C 1025.9 in /  34737 hPa NE 6.1 mph /  9.8 km/h 5.3 mph /  8.5 km/h 73 % 0.0 in /  0 mm
18:49 17.3 °F /  -8.2 °C 12.4 °F /  -10.9 °C 1025.9 in /  34737 hPa NNE 7.4 mph /  11.9 km/h 5.0 mph /  8 km/h 73 % 0.0 in /  0 mm
18:54 17.3 °F /  -8.2 °C 12.4 °F /  -10.9 °C 1025.9 in /  34737 hPa ENE 7.4 mph /  11.9 km/h 5.3 mph /  8.5 km/h 73 % 0.0 in /  0 mm
18:59 17.2 °F /  -8.2 °C 12.5 °F /  -10.8 °C 1025.9 in /  34737 hPa ENE 6.1 mph /  9.8 km/h 5.0 mph /  8 km/h 74 % 0.0 in /  0 mm
19:04 17.2 °F /  -8.2 °C 12.5 °F /  -10.8 °C 1025.9 in /  34737 hPa NNE 7.4 mph /  11.9 km/h 5.8 mph /  9.3 km/h 74 % 0.0 in /  0 mm
19:09 17.2 °F /  -8.2 °C 12.5 °F /  -10.8 °C 1025.9 in /  34737 hPa ENE 9.3 mph /  15 km/h 4.7 mph /  7.6 km/h 74 % 0.0 in /  0 mm
19:14 17.2 °F /  -8.2 °C 12.5 °F /  -10.8 °C 1025.9 in /  34737 hPa ENE 7.4 mph /  11.9 km/h 5.3 mph /  8.5 km/h 74 % 0.0 in /  0 mm
19:19 17.2 °F /  -8.2 °C 12.5 °F /  -10.8 °C 1026.9 in /  34770.8 hPa ESE 9.3 mph /  15 km/h 6.4 mph /  10.3 km/h 74 % 0.0 in /  0 mm
19:24 17.1 °F /  -8.3 °C 12.6 °F /  -10.8 °C 1026.9 in /  34770.8 hPa ENE 3.7 mph /  6 km/h 1.9 mph /  3.1 km/h 75 % 0.0 in /  0 mm
19:29 17.0 °F /  -8.3 °C 12.6 °F /  -10.8 °C 1026.9 in /  34770.8 hPa NNE 5.8 mph /  9.3 km/h 3.5 mph /  5.6 km/h 75 % 0.0 in /  0 mm
19:34 16.9 °F /  -8.4 °C 12.7 °F /  -10.7 °C 1026.9 in /  34770.8 hPa NNE 7.4 mph /  11.9 km/h 3.5 mph /  5.6 km/h 76 % 0.0 in /  0 mm
19:39 16.9 °F /  -8.4 °C 12.7 °F /  -10.7 °C 1026.9 in /  34770.8 hPa NE 9.3 mph /  15 km/h 6.4 mph /  10.3 km/h 76 % 0.0 in /  0 mm
19:44 16.8 °F /  -8.4 °C 12.6 °F /  -10.8 °C 1026.9 in /  34770.8 hPa NE 7.4 mph /  11.9 km/h 3.2 mph /  5.1 km/h 76 % 0.0 in /  0 mm
19:49 16.8 °F /  -8.4 °C 12.7 °F /  -10.7 °C 1026.9 in /  34770.8 hPa ENE 9.3 mph /  15 km/h 4.2 mph /  6.8 km/h 77 % 0.0 in /  0 mm
19:54 16.8 °F /  -8.4 °C 12.7 °F /  -10.7 °C 1026.9 in /  34770.8 hPa NNE 3.7 mph /  6 km/h 2.6 mph /  4.2 km/h 77 % 0.0 in /  0 mm
19:59 16.7 °F /  -8.5 °C 12.7 °F /  -10.7 °C 1026.9 in /  34770.8 hPa NE 3.7 mph /  6 km/h 3.5 mph /  5.6 km/h 77 % 0.0 in /  0 mm
Meteo Sesrovires
Elogis d' Weather Underground - 1.5 mb

Guio original per  Jim McMurry - jmcmurry@mwt.net Adaptat per a la plantilla per  Wim van der Kuil - Leuven-Template.eu

Trobareu la nostra informacio del temps tambe a:

Weather Underground

AWEKAS